sensor_id;sensor_type;location;lat;lon;timestamp;temperature;humidity
25108;DHT22;13090;53.422;7.670;2022-09-20T00:03:02;12.40;76.50
25108;DHT22;13090;53.422;7.670;2022-09-20T00:08:08;12.40;76.70
25108;DHT22;13090;53.422;7.670;2022-09-20T00:13:12;12.40;76.90
25108;DHT22;13090;53.422;7.670;2022-09-20T00:18:16;12.40;77.00
25108;DHT22;13090;53.422;7.670;2022-09-20T00:23:19;12.40;77.20
25108;DHT22;13090;53.422;7.670;2022-09-20T00:28:21;12.50;77.70
25108;DHT22;13090;53.422;7.670;2022-09-20T00:33:26;12.60;78.10
25108;DHT22;13090;53.422;7.670;2022-09-20T00:38:28;12.70;78.50
25108;DHT22;13090;53.422;7.670;2022-09-20T00:43:36;12.90;78.50
25108;DHT22;13090;53.422;7.670;2022-09-20T00:48:41;13.10;79.00
25108;DHT22;13090;53.422;7.670;2022-09-20T00:53:47;13.20;78.70
25108;DHT22;13090;53.422;7.670;2022-09-20T00:58:53;13.30;78.60
25108;DHT22;13090;53.422;7.670;2022-09-20T01:04:02;13.40;78.30
25108;DHT22;13090;53.422;7.670;2022-09-20T01:09:05;13.50;78.40
25108;DHT22;13090;53.422;7.670;2022-09-20T01:14:08;13.50;78.20
25108;DHT22;13090;53.422;7.670;2022-09-20T01:19:18;13.60;78.20
25108;DHT22;13090;53.422;7.670;2022-09-20T01:24:31;13.70;78.60
25108;DHT22;13090;53.422;7.670;2022-09-20T01:35:16;13.80;78.30
25108;DHT22;13090;53.422;7.670;2022-09-20T01:40:25;13.80;77.50
25108;DHT22;13090;53.422;7.670;2022-09-20T01:45:31;13.70;77.50
25108;DHT22;13090;53.422;7.670;2022-09-20T01:50:47;13.70;77.50
25108;DHT22;13090;53.422;7.670;2022-09-20T01:56:18;13.60;78.00
25108;DHT22;13090;53.422;7.670;2022-09-20T02:12:48;13.50;78.80
25108;DHT22;13090;53.422;7.670;2022-09-20T02:18:02;13.50;78.90
25108;DHT22;13090;53.422;7.670;2022-09-20T02:23:20;13.50;78.80
25108;DHT22;13090;53.422;7.670;2022-09-20T02:28:35;13.50;78.90
25108;DHT22;13090;53.422;7.670;2022-09-20T02:33:58;13.50;78.80
25108;DHT22;13090;53.422;7.670;2022-09-20T02:39:10;13.50;79.40
25108;DHT22;13090;53.422;7.670;2022-09-20T02:44:20;13.50;78.80
25108;DHT22;13090;53.422;7.670;2022-09-20T02:49:30;13.40;78.60
25108;DHT22;13090;53.422;7.670;2022-09-20T02:54:47;13.40;78.60
25108;DHT22;13090;53.422;7.670;2022-09-20T02:59:57;13.30;78.90
25108;DHT22;13090;53.422;7.670;2022-09-20T03:05:10;13.30;78.80
25108;DHT22;13090;53.422;7.670;2022-09-20T03:10:24;13.20;79.00
25108;DHT22;13090;53.422;7.670;2022-09-20T03:15:38;13.20;78.90
25108;DHT22;13090;53.422;7.670;2022-09-20T03:20:51;13.10;79.00
25108;DHT22;13090;53.422;7.670;2022-09-20T03:26:11;13.10;79.20
25108;DHT22;13090;53.422;7.670;2022-09-20T03:31:27;13.00;79.50
25108;DHT22;13090;53.422;7.670;2022-09-20T03:36:56;13.00;79.60
25108;DHT22;13090;53.422;7.670;2022-09-20T03:42:13;13.00;80.40
25108;DHT22;13090;53.422;7.670;2022-09-20T03:47:24;13.00;80.00
25108;DHT22;13090;53.422;7.670;2022-09-20T03:52:58;13.10;80.20
25108;DHT22;13090;53.422;7.670;2022-09-20T03:58:15;13.10;81.10
25108;DHT22;13090;53.422;7.670;2022-09-20T04:03:33;13.20;80.80
25108;DHT22;13090;53.422;7.670;2022-09-20T04:09:04;13.30;80.60
25108;DHT22;13090;53.422;7.670;2022-09-20T04:14:17;13.40;80.80
25108;DHT22;13090;53.422;7.670;2022-09-20T04:19:27;13.40;80.20
25108;DHT22;13090;53.422;7.670;2022-09-20T04:24:39;13.50;80.00
25108;DHT22;13090;53.422;7.670;2022-09-20T04:29:43;13.50;79.90
25108;DHT22;13090;53.422;7.670;2022-09-20T04:34:56;13.50;80.00
25108;DHT22;13090;53.422;7.670;2022-09-20T04:40:20;13.50;79.60
25108;DHT22;13090;53.422;7.670;2022-09-20T04:56:54;13.50;80.70
25108;DHT22;13090;53.422;7.670;2022-09-20T05:08:03;13.60;81.10
25108;DHT22;13090;53.422;7.670;2022-09-20T05:13:15;13.70;80.80
25108;DHT22;13090;53.422;7.670;2022-09-20T05:18:55;13.70;80.20
25108;DHT22;13090;53.422;7.670;2022-09-20T05:24:12;13.60;80.80
25108;DHT22;13090;53.422;7.670;2022-09-20T05:29:27;13.60;80.00
25108;DHT22;13090;53.422;7.670;2022-09-20T05:34:39;13.50;80.20
25108;DHT22;13090;53.422;7.670;2022-09-20T05:39:48;13.50;80.30
25108;DHT22;13090;53.422;7.670;2022-09-20T05:44:58;13.50;80.40
25108;DHT22;13090;53.422;7.670;2022-09-20T05:50:28;13.60;80.50
25108;DHT22;13090;53.422;7.670;2022-09-20T05:55:53;13.60;80.80
25108;DHT22;13090;53.422;7.670;2022-09-20T06:01:01;13.70;81.30
25108;DHT22;13090;53.422;7.670;2022-09-20T06:06:12;13.80;80.80
25108;DHT22;13090;53.422;7.670;2022-09-20T06:11:36;13.90;80.40
25108;DHT22;13090;53.422;7.670;2022-09-20T06:16:50;14.00;81.00
25108;DHT22;13090;53.422;7.670;2022-09-20T06:21:58;14.00;80.50
25108;DHT22;13090;53.422;7.670;2022-09-20T06:27:10;14.20;80.70
25108;DHT22;13090;53.422;7.670;2022-09-20T06:32:18;14.30;80.70
25108;DHT22;13090;53.422;7.670;2022-09-20T06:37:40;14.40;81.50
25108;DHT22;13090;53.422;7.670;2022-09-20T06:42:46;14.50;81.00
25108;DHT22;13090;53.422;7.670;2022-09-20T06:47:48;14.50;80.00
25108;DHT22;13090;53.422;7.670;2022-09-20T06:52:52;14.60;80.20
25108;DHT22;13090;53.422;7.670;2022-09-20T06:57:55;14.60;80.30
25108;DHT22;13090;53.422;7.670;2022-09-20T07:02:58;14.60;80.40
25108;DHT22;13090;53.422;7.670;2022-09-20T07:08:03;14.70;80.50
25108;DHT22;13090;53.422;7.670;2022-09-20T07:13:06;14.90;81.00
25108;DHT22;13090;53.422;7.670;2022-09-20T07:18:08;15.20;81.10
25108;DHT22;13090;53.422;7.670;2022-09-20T07:23:12;15.60;81.00
25108;DHT22;13090;53.422;7.670;2022-09-20T07:28:15;15.90;80.20
25108;DHT22;13090;53.422;7.670;2022-09-20T07:33:18;16.30;81.30
25108;DHT22;13090;53.422;7.670;2022-09-20T07:38:22;17.00;80.60
25108;DHT22;13090;53.422;7.670;2022-09-20T07:43:28;17.50;79.00
25108;DHT22;13090;53.422;7.670;2022-09-20T07:48:34;17.80;77.80
25108;DHT22;13090;53.422;7.670;2022-09-20T07:53:38;17.80;76.70
25108;DHT22;13090;53.422;7.670;2022-09-20T07:58:42;17.80;76.50
25108;DHT22;13090;53.422;7.670;2022-09-20T08:03:47;17.70;76.40
25108;DHT22;13090;53.422;7.670;2022-09-20T08:08:51;17.70;76.50
25108;DHT22;13090;53.422;7.670;2022-09-20T08:13:55;17.80;77.00
25108;DHT22;13090;53.422;7.670;2022-09-20T08:19:15;18.10;78.20
25108;DHT22;13090;53.422;7.670;2022-09-20T08:24:20;19.00;79.80
25108;DHT22;13090;53.422;7.670;2022-09-20T08:29:23;20.20;79.50
25108;DHT22;13090;53.422;7.670;2022-09-20T08:34:27;21.20;75.80
25108;DHT22;13090;53.422;7.670;2022-09-20T08:39:32;21.60;72.90
25108;DHT22;13090;53.422;7.670;2022-09-20T08:45:00;21.50;70.80
25108;DHT22;13090;53.422;7.670;2022-09-20T08:50:05;21.30;70.10
25108;DHT22;13090;53.422;7.670;2022-09-20T08:55:17;21.00;69.50
25108;DHT22;13090;53.422;7.670;2022-09-20T09:00:23;20.50;69.30
25108;DHT22;13090;53.422;7.670;2022-09-20T09:05:32;20.20;69.60
25108;DHT22;13090;53.422;7.670;2022-09-20T09:10:38;19.80;70.40
25108;DHT22;13090;53.422;7.670;2022-09-20T09:15:51;19.60;71.20
25108;DHT22;13090;53.422;7.670;2022-09-20T09:20:54;19.50;71.70
25108;DHT22;13090;53.422;7.670;2022-09-20T09:26:02;19.60;72.90
25108;DHT22;13090;53.422;7.670;2022-09-20T09:31:20;20.10;72.40
25108;DHT22;13090;53.422;7.670;2022-09-20T09:36:25;20.50;71.50
25108;DHT22;13090;53.422;7.670;2022-09-20T09:41:30;21.00;71.70
25108;DHT22;13090;53.422;7.670;2022-09-20T09:46:35;21.40;70.70
25108;DHT22;13090;53.422;7.670;2022-09-20T09:51:38;21.60;69.10
25108;DHT22;13090;53.422;7.670;2022-09-20T09:56:52;21.50;67.90
25108;DHT22;13090;53.422;7.670;2022-09-20T10:02:02;21.30;66.90
25108;DHT22;13090;53.422;7.670;2022-09-20T10:07:17;21.10;67.50
25108;DHT22;13090;53.422;7.670;2022-09-20T10:12:40;21.10;67.80
25108;DHT22;13090;53.422;7.670;2022-09-20T10:17:50;21.30;69.40
25108;DHT22;13090;53.422;7.670;2022-09-20T10:23:06;21.70;69.20
25108;DHT22;13090;53.422;7.670;2022-09-20T10:28:43;22.00;66.10
25108;DHT22;13090;53.422;7.670;2022-09-20T10:33:59;22.00;65.30
25108;DHT22;13090;53.422;7.670;2022-09-20T10:39:09;22.00;65.30
25108;DHT22;13090;53.422;7.670;2022-09-20T10:44:32;22.10;66.40
25108;DHT22;13090;53.422;7.670;2022-09-20T10:49:42;22.70;66.80
25108;DHT22;13090;53.422;7.670;2022-09-20T10:55:06;23.50;66.20
25108;DHT22;13090;53.422;7.670;2022-09-20T11:00:20;24.30;63.10
25108;DHT22;13090;53.422;7.670;2022-09-20T11:05:32;24.80;61.20
25108;DHT22;13090;53.422;7.670;2022-09-20T11:10:41;25.10;59.80
25108;DHT22;13090;53.422;7.670;2022-09-20T11:15:50;25.30;58.50
25108;DHT22;13090;53.422;7.670;2022-09-20T11:20:59;25.40;58.10
25108;DHT22;13090;53.422;7.670;2022-09-20T11:26:09;25.60;58.10
25108;DHT22;13090;53.422;7.670;2022-09-20T11:31:21;25.80;56.60
25108;DHT22;13090;53.422;7.670;2022-09-20T11:36:31;25.80;55.50
25108;DHT22;13090;53.422;7.670;2022-09-20T11:41:36;25.50;55.40
25108;DHT22;13090;53.422;7.670;2022-09-20T11:46:45;25.00;56.00
25108;DHT22;13090;53.422;7.670;2022-09-20T11:52:11;24.40;55.90
25108;DHT22;13090;53.422;7.670;2022-09-20T11:57:17;23.80;56.60
25108;DHT22;13090;53.422;7.670;2022-09-20T12:02:24;23.40;57.80
25108;DHT22;13090;53.422;7.670;2022-09-20T12:07:34;23.00;58.30
25108;DHT22;13090;53.422;7.670;2022-09-20T12:12:40;23.00;59.80
25108;DHT22;13090;53.422;7.670;2022-09-20T12:18:07;23.50;60.70
25108;DHT22;13090;53.422;7.670;2022-09-20T12:23:45;24.10;59.00
25108;DHT22;13090;53.422;7.670;2022-09-20T12:28:49;24.80;58.60
25108;DHT22;13090;53.422;7.670;2022-09-20T12:34:00;25.10;58.30
25108;DHT22;13090;53.422;7.670;2022-09-20T12:39:13;25.20;56.70
25108;DHT22;13090;53.422;7.670;2022-09-20T12:44:32;25.10;56.70
25108;DHT22;13090;53.422;7.670;2022-09-20T12:49:48;24.80;53.90
25108;DHT22;13090;53.422;7.670;2022-09-20T12:54:52;24.30;52.00
25108;DHT22;13090;53.422;7.670;2022-09-20T13:00:02;23.70;53.20
25108;DHT22;13090;53.422;7.670;2022-09-20T13:05:30;23.20;54.00
25108;DHT22;13090;53.422;7.670;2022-09-20T13:10:38;22.90;54.00
25108;DHT22;13090;53.422;7.670;2022-09-20T13:15:48;22.70;55.10
25108;DHT22;13090;53.422;7.670;2022-09-20T13:20:54;22.50;55.40
25108;DHT22;13090;53.422;7.670;2022-09-20T13:25:59;22.50;56.20
25108;DHT22;13090;53.422;7.670;2022-09-20T13:31:24;22.40;56.80
25108;DHT22;13090;53.422;7.670;2022-09-20T13:36:29;22.40;56.10
25108;DHT22;13090;53.422;7.670;2022-09-20T13:41:32;22.40;56.10
25108;DHT22;13090;53.422;7.670;2022-09-20T13:46:42;22.40;55.90
25108;DHT22;13090;53.422;7.670;2022-09-20T13:51:48;22.40;55.30
25108;DHT22;13090;53.422;7.670;2022-09-20T13:56:51;22.30;55.70
25108;DHT22;13090;53.422;7.670;2022-09-20T14:01:54;22.20;55.90
25108;DHT22;13090;53.422;7.670;2022-09-20T14:07:00;22.20;56.30
25108;DHT22;13090;53.422;7.670;2022-09-20T14:12:09;22.10;57.10
25108;DHT22;13090;53.422;7.670;2022-09-20T14:17:15;22.20;56.50
25108;DHT22;13090;53.422;7.670;2022-09-20T14:22:23;22.20;55.90
25108;DHT22;13090;53.422;7.670;2022-09-20T14:27:27;22.10;55.90
25108;DHT22;13090;53.422;7.670;2022-09-20T14:32:37;22.10;55.80
25108;DHT22;13090;53.422;7.670;2022-09-20T14:37:44;22.10;54.70
25108;DHT22;13090;53.422;7.670;2022-09-20T14:42:51;22.10;55.20
25108;DHT22;13090;53.422;7.670;2022-09-20T14:47:57;22.10;55.50
25108;DHT22;13090;53.422;7.670;2022-09-20T14:53:24;22.10;55.40
25108;DHT22;13090;53.422;7.670;2022-09-20T14:58:26;22.20;54.70
25108;DHT22;13090;53.422;7.670;2022-09-20T15:03:31;22.20;56.30
25108;DHT22;13090;53.422;7.670;2022-09-20T15:08:37;22.00;54.90
25108;DHT22;13090;53.422;7.670;2022-09-20T15:13:47;21.70;54.80
25108;DHT22;13090;53.422;7.670;2022-09-20T15:18:50;21.40;55.30
25108;DHT22;13090;53.422;7.670;2022-09-20T15:23:55;21.30;55.80
25108;DHT22;13090;53.422;7.670;2022-09-20T15:28:58;21.00;56.00
25108;DHT22;13090;53.422;7.670;2022-09-20T15:34:05;20.90;56.50
25108;DHT22;13090;53.422;7.670;2022-09-20T15:39:13;20.80;56.60
25108;DHT22;13090;53.422;7.670;2022-09-20T15:44:18;20.70;56.60
25108;DHT22;13090;53.422;7.670;2022-09-20T15:49:22;20.60;56.90
25108;DHT22;13090;53.422;7.670;2022-09-20T15:54:26;20.40;57.00
25108;DHT22;13090;53.422;7.670;2022-09-20T15:59:29;20.20;57.10
25108;DHT22;13090;53.422;7.670;2022-09-20T16:04:31;20.00;57.40
25108;DHT22;13090;53.422;7.670;2022-09-20T16:09:36;19.80;57.60
25108;DHT22;13090;53.422;7.670;2022-09-20T16:14:39;19.50;58.10
25108;DHT22;13090;53.422;7.670;2022-09-20T16:19:42;19.30;58.50
25108;DHT22;13090;53.422;7.670;2022-09-20T16:24:46;19.10;58.60
25108;DHT22;13090;53.422;7.670;2022-09-20T16:29:50;18.90;58.90
25108;DHT22;13090;53.422;7.670;2022-09-20T16:34:52;18.70;59.20
25108;DHT22;13090;53.422;7.670;2022-09-20T16:39:57;18.50;59.70
25108;DHT22;13090;53.422;7.670;2022-09-20T16:45:00;18.40;60.10
25108;DHT22;13090;53.422;7.670;2022-09-20T16:50:03;18.30;60.30
25108;DHT22;13090;53.422;7.670;2022-09-20T16:55:09;18.10;60.50
25108;DHT22;13090;53.422;7.670;2022-09-20T17:00:13;18.10;61.10
25108;DHT22;13090;53.422;7.670;2022-09-20T17:05:18;17.90;61.00
25108;DHT22;13090;53.422;7.670;2022-09-20T17:10:25;17.80;61.50
25108;DHT22;13090;53.422;7.670;2022-09-20T17:15:28;17.70;61.70
25108;DHT22;13090;53.422;7.670;2022-09-20T17:20:33;17.50;61.70
25108;DHT22;13090;53.422;7.670;2022-09-20T17:25:38;17.30;62.10
25108;DHT22;13090;53.422;7.670;2022-09-20T17:30:45;17.20;62.40
25108;DHT22;13090;53.422;7.670;2022-09-20T17:35:58;17.00;62.70
25108;DHT22;13090;53.422;7.670;2022-09-20T17:41:06;16.80;62.90
25108;DHT22;13090;53.422;7.670;2022-09-20T17:46:16;16.60;63.40
25108;DHT22;13090;53.422;7.670;2022-09-20T17:51:21;16.40;63.60
25108;DHT22;13090;53.422;7.670;2022-09-20T17:56:26;16.20;63.80
25108;DHT22;13090;53.422;7.670;2022-09-20T18:01:31;16.10;64.20
25108;DHT22;13090;53.422;7.670;2022-09-20T18:06:35;15.90;64.30
25108;DHT22;13090;53.422;7.670;2022-09-20T18:11:41;15.80;64.70
25108;DHT22;13090;53.422;7.670;2022-09-20T18:16:44;15.60;65.10
25108;DHT22;13090;53.422;7.670;2022-09-20T18:21:47;15.40;65.20
25108;DHT22;13090;53.422;7.670;2022-09-20T18:26:51;15.30;65.40
25108;DHT22;13090;53.422;7.670;2022-09-20T18:31:54;15.10;66.00
25108;DHT22;13090;53.422;7.670;2022-09-20T18:36:58;15.00;66.00
25108;DHT22;13090;53.422;7.670;2022-09-20T18:42:07;14.90;66.20
25108;DHT22;13090;53.422;7.670;2022-09-20T18:47:10;14.70;66.70
25108;DHT22;13090;53.422;7.670;2022-09-20T18:52:13;14.60;66.60
25108;DHT22;13090;53.422;7.670;2022-09-20T18:57:19;14.50;66.80
25108;DHT22;13090;53.422;7.670;2022-09-20T19:02:42;14.40;67.10
25108;DHT22;13090;53.422;7.670;2022-09-20T19:08:20;14.30;67.80
25108;DHT22;13090;53.422;7.670;2022-09-20T19:13:36;14.20;68.30
25108;DHT22;13090;53.422;7.670;2022-09-20T19:19:05;14.00;67.80
25108;DHT22;13090;53.422;7.670;2022-09-20T19:24:18;13.90;68.40
25108;DHT22;13090;53.422;7.670;2022-09-20T19:29:29;13.80;68.30
25108;DHT22;13090;53.422;7.670;2022-09-20T19:34:33;13.70;68.60
25108;DHT22;13090;53.422;7.670;2022-09-20T19:39:59;13.60;68.40
25108;DHT22;13090;53.422;7.670;2022-09-20T19:45:33;13.50;69.80
25108;DHT22;13090;53.422;7.670;2022-09-20T19:56:27;13.40;69.70
25108;DHT22;13090;53.422;7.670;2022-09-20T20:01:34;13.30;68.50
25108;DHT22;13090;53.422;7.670;2022-09-20T20:12:45;13.20;69.70
25108;DHT22;13090;53.422;7.670;2022-09-20T20:17:57;13.10;69.60
25108;DHT22;13090;53.422;7.670;2022-09-20T20:23:32;13.00;69.30
25108;DHT22;13090;53.422;7.670;2022-09-20T20:28:37;12.90;69.70
25108;DHT22;13090;53.422;7.670;2022-09-20T20:33:41;12.80;68.90
25108;DHT22;13090;53.422;7.670;2022-09-20T20:38:45;12.80;69.10
25108;DHT22;13090;53.422;7.670;2022-09-20T20:43:52;12.70;69.20
25108;DHT22;13090;53.422;7.670;2022-09-20T20:48:58;12.60;69.60
25108;DHT22;13090;53.422;7.670;2022-09-20T20:54:03;12.50;69.80
25108;DHT22;13090;53.422;7.670;2022-09-20T20:59:06;12.50;69.80
25108;DHT22;13090;53.422;7.670;2022-09-20T21:04:11;12.40;69.70
25108;DHT22;13090;53.422;7.670;2022-09-20T21:09:14;12.30;70.10
25108;DHT22;13090;53.422;7.670;2022-09-20T21:14:16;12.20;70.30
25108;DHT22;13090;53.422;7.670;2022-09-20T21:19:21;12.10;70.20
25108;DHT22;13090;53.422;7.670;2022-09-20T21:24:25;12.10;70.50
25108;DHT22;13090;53.422;7.670;2022-09-20T21:29:28;12.00;70.40
25108;DHT22;13090;53.422;7.670;2022-09-20T21:34:32;11.90;70.30
25108;DHT22;13090;53.422;7.670;2022-09-20T21:39:35;11.90;70.40
25108;DHT22;13090;53.422;7.670;2022-09-20T21:44:37;11.80;70.10
25108;DHT22;13090;53.422;7.670;2022-09-20T21:49:41;11.80;70.30
25108;DHT22;13090;53.422;7.670;2022-09-20T21:54:44;11.70;70.30
25108;DHT22;13090;53.422;7.670;2022-09-20T21:59:46;11.70;70.30
25108;DHT22;13090;53.422;7.670;2022-09-20T22:04:52;11.60;70.50
25108;DHT22;13090;53.422;7.670;2022-09-20T22:09:55;11.50;70.90
25108;DHT22;13090;53.422;7.670;2022-09-20T22:14:59;11.50;70.60
25108;DHT22;13090;53.422;7.670;2022-09-20T22:20:05;11.40;70.60
25108;DHT22;13090;53.422;7.670;2022-09-20T22:25:08;11.30;70.80
25108;DHT22;13090;53.422;7.670;2022-09-20T22:30:12;11.30;70.90
25108;DHT22;13090;53.422;7.670;2022-09-20T22:35:16;11.20;71.10
25108;DHT22;13090;53.422;7.670;2022-09-20T22:40:19;11.20;71.30
25108;DHT22;13090;53.422;7.670;2022-09-20T22:45:22;11.10;71.10
25108;DHT22;13090;53.422;7.670;2022-09-20T22:50:26;11.00;71.30
25108;DHT22;13090;53.422;7.670;2022-09-20T22:55:30;11.00;71.50
25108;DHT22;13090;53.422;7.670;2022-09-20T23:00:33;10.90;71.50
25108;DHT22;13090;53.422;7.670;2022-09-20T23:05:40;10.90;71.40
25108;DHT22;13090;53.422;7.670;2022-09-20T23:10:42;10.80;71.50
25108;DHT22;13090;53.422;7.670;2022-09-20T23:15:46;10.70;71.20
25108;DHT22;13090;53.422;7.670;2022-09-20T23:20:59;10.70;71.40
25108;DHT22;13090;53.422;7.670;2022-09-20T23:26:07;10.70;72.00
25108;DHT22;13090;53.422;7.670;2022-09-20T23:31:12;10.60;71.90
25108;DHT22;13090;53.422;7.670;2022-09-20T23:36:17;10.50;71.70
25108;DHT22;13090;53.422;7.670;2022-09-20T23:41:23;10.50;71.90
25108;DHT22;13090;53.422;7.670;2022-09-20T23:46:27;10.40;72.10
25108;DHT22;13090;53.422;7.670;2022-09-20T23:51:31;10.40;72.20
25108;DHT22;13090;53.422;7.670;2022-09-20T23:56:33;10.40;72.40
